createdAt,value
2017-09-15T00:01:09.677Z,12.85
2017-09-15T00:02:09.738Z,12.82
2017-09-15T00:04:02.745Z,12.83
2017-09-15T00:05:02.785Z,12.86
2017-09-15T00:06:55.775Z,12.82
2017-09-15T00:07:55.834Z,12.85
2017-09-15T00:09:48.843Z,12.86
2017-09-15T00:10:48.882Z,12.83
2017-09-15T00:12:41.871Z,12.91
2017-09-15T00:13:41.928Z,12.94
2017-09-15T00:15:34.934Z,12.90
2017-09-15T00:16:34.976Z,12.82
2017-09-15T00:18:27.985Z,12.83
2017-09-15T00:19:28.025Z,12.80
2017-09-15T00:21:21.014Z,12.80
2017-09-15T00:22:21.071Z,12.73
2017-09-15T00:24:14.083Z,12.76
2017-09-15T00:25:14.127Z,12.65
2017-09-15T00:27:07.114Z,12.72
2017-09-15T00:28:07.172Z,12.70
2017-09-15T00:30:00.182Z,12.76
2017-09-15T00:31:00.225Z,12.73
2017-09-15T00:32:53.208Z,12.73
2017-09-15T00:33:53.269Z,12.75
2017-09-15T00:35:46.277Z,12.73
2017-09-15T00:36:46.317Z,12.65
2017-09-15T00:38:39.324Z,12.61
2017-09-15T00:39:39.365Z,12.65
2017-09-15T00:41:32.355Z,12.64
2017-09-15T00:42:32.412Z,12.64
2017-09-15T00:44:25.423Z,12.62
2017-09-15T00:45:25.461Z,12.54
2017-09-15T00:47:18.446Z,12.46
2017-09-15T00:48:18.507Z,12.55
2017-09-15T00:50:11.511Z,12.50
2017-09-15T00:51:11.553Z,12.47
2017-09-15T00:53:04.537Z,12.46
2017-09-15T00:54:04.601Z,12.49
2017-09-15T00:55:57.608Z,12.55
2017-09-15T00:56:57.648Z,12.49
2017-09-15T00:58:50.654Z,12.49
2017-09-15T00:59:50.696Z,12.50
2017-09-15T01:01:44.190Z,12.54
2017-09-15T01:02:44.249Z,12.49
2017-09-15T01:04:37.255Z,12.36
2017-09-15T01:05:37.297Z,12.42
2017-09-15T01:07:30.281Z,12.49
2017-09-15T01:08:30.341Z,12.40
2017-09-15T01:10:23.348Z,12.40
2017-09-15T01:11:23.388Z,12.45
2017-09-15T01:13:16.374Z,12.43
2017-09-15T01:14:16.436Z,12.39
2017-09-15T01:16:09.442Z,12.36
2017-09-15T01:17:09.483Z,12.36
2017-09-15T01:19:02.466Z,12.31
2017-09-15T01:20:02.527Z,12.39
2017-09-15T01:21:55.549Z,12.36
2017-09-15T01:22:55.580Z,12.37
2017-09-15T01:24:48.592Z,12.40
2017-09-15T01:25:48.634Z,12.35
2017-09-15T01:27:41.622Z,12.45
2017-09-15T01:28:41.680Z,12.43
2017-09-15T01:30:34.692Z,12.46
2017-09-15T01:31:34.729Z,12.43
2017-09-15T01:33:27.718Z,12.43
2017-09-15T01:34:27.773Z,12.45
2017-09-15T01:36:20.781Z,12.45
2017-09-15T01:37:20.821Z,12.46
2017-09-15T01:39:13.805Z,12.42
2017-09-15T01:40:13.868Z,12.43
2017-09-15T01:42:06.874Z,12.42
2017-09-15T01:43:06.913Z,12.42
2017-09-15T01:44:59.920Z,12.39
2017-09-15T01:45:59.969Z,12.42
2017-09-15T01:47:52.950Z,12.43
2017-09-15T01:48:53.007Z,12.39
2017-09-15T01:50:46.012Z,12.40
2017-09-15T01:51:46.053Z,12.40
2017-09-15T01:53:39.043Z,12.39
2017-09-15T01:54:39.105Z,12.36
2017-09-15T01:56:32.115Z,12.32
2017-09-15T01:57:32.153Z,12.27
2017-09-15T01:59:25.141Z,12.27
2017-09-15T02:00:25.202Z,12.21
2017-09-15T02:02:18.718Z,12.18
2017-09-15T02:03:18.758Z,12.24
2017-09-15T02:05:11.768Z,12.20
2017-09-15T02:06:11.809Z,12.15
2017-09-15T02:08:04.795Z,12.20
2017-09-15T02:09:04.856Z,12.20
2017-09-15T02:10:57.866Z,12.21
2017-09-15T02:11:57.906Z,12.22
2017-09-15T02:13:50.892Z,12.31
2017-09-15T02:14:50.949Z,12.21
2017-09-15T02:16:43.955Z,12.20
2017-09-15T02:17:43.995Z,12.20
2017-09-15T02:19:36.984Z,12.29
2017-09-15T02:20:37.040Z,12.22
2017-09-15T02:22:30.046Z,12.27
2017-09-15T02:23:30.086Z,12.17
2017-09-15T02:25:23.093Z,12.29
2017-09-15T02:26:23.135Z,12.24
2017-09-15T02:28:16.123Z,12.37
2017-09-15T02:29:16.186Z,12.32
2017-09-15T02:31:09.191Z,12.29
2017-09-15T02:32:09.232Z,12.22
2017-09-15T02:34:02.217Z,12.28
2017-09-15T02:35:02.282Z,12.24
2017-09-15T02:36:55.285Z,12.24
2017-09-15T02:37:55.329Z,12.21
2017-09-15T02:39:48.309Z,12.21
2017-09-15T02:40:48.371Z,12.21
2017-09-15T02:42:41.377Z,12.22
2017-09-15T02:43:41.416Z,12.20
2017-09-15T02:45:34.420Z,12.20
2017-09-15T02:46:34.463Z,12.20
2017-09-15T02:48:27.445Z,12.22
2017-09-15T02:49:27.507Z,12.24
2017-09-15T02:51:20.519Z,12.21
2017-09-15T02:52:20.562Z,12.15
2017-09-15T02:54:13.555Z,12.22
2017-09-15T02:55:13.616Z,12.24
2017-09-15T02:57:06.621Z,12.28
2017-09-15T02:58:06.662Z,12.21
2017-09-15T02:59:59.645Z,12.25
2017-09-15T03:00:59.708Z,12.22
2017-09-15T03:02:52.713Z,12.18
2017-09-15T03:03:52.753Z,12.28
2017-09-15T03:05:45.759Z,12.22
2017-09-15T03:06:45.805Z,12.07
2017-09-15T03:08:38.785Z,12.22
2017-09-15T03:09:38.846Z,12.10
2017-09-15T03:11:31.855Z,12.10
2017-09-15T03:12:31.889Z,12.06
2017-09-15T03:14:24.879Z,12.06
2017-09-15T03:15:24.934Z,12.12
2017-09-15T03:17:17.943Z,12.13
2017-09-15T03:18:17.980Z,12.10
2017-09-15T03:20:10.965Z,12.20
2017-09-15T03:21:11.026Z,12.13
2017-09-15T03:23:04.032Z,12.22
2017-09-15T03:24:04.071Z,12.15
2017-09-15T03:25:57.080Z,12.21
2017-09-15T03:26:57.118Z,12.10
2017-09-15T03:28:50.109Z,12.17
2017-09-15T03:29:50.166Z,12.09
2017-09-15T03:31:43.173Z,12.04
2017-09-15T03:32:43.213Z,12.13
2017-09-15T03:34:36.203Z,12.02
2017-09-15T03:35:36.263Z,12.09
2017-09-15T03:37:29.266Z,12.02
2017-09-15T03:38:29.304Z,12.03
2017-09-15T03:40:22.292Z,12.04
2017-09-15T03:41:22.349Z,12.03
2017-09-15T03:43:15.358Z,12.02
2017-09-15T03:44:15.397Z,12.04
2017-09-15T03:46:08.413Z,12.04
2017-09-15T03:47:08.446Z,11.97
2017-09-15T03:49:01.444Z,12.04
2017-09-15T03:50:01.502Z,11.91
2017-09-15T03:51:54.513Z,11.90
2017-09-15T03:52:54.557Z,12.00
2017-09-15T03:54:47.543Z,11.94
2017-09-15T03:55:47.604Z,11.91
2017-09-15T03:57:40.614Z,11.88
2017-09-15T03:58:40.653Z,11.87
2017-09-15T04:00:33.638Z,11.87
2017-09-15T04:01:33.697Z,11.86
2017-09-15T04:03:26.705Z,11.91
2017-09-15T04:04:26.746Z,11.90
2017-09-15T04:06:19.752Z,11.94
2017-09-15T04:07:19.793Z,11.90
2017-09-15T04:09:12.776Z,11.86
2017-09-15T04:10:12.836Z,11.80
2017-09-15T04:12:05.844Z,11.73
2017-09-15T04:13:05.883Z,11.72
2017-09-15T04:14:58.872Z,11.69
2017-09-15T04:15:58.927Z,11.65
2017-09-15T04:17:51.937Z,11.62
2017-09-15T04:18:51.979Z,11.52
2017-09-15T04:20:44.963Z,11.62
2017-09-15T04:21:45.020Z,11.50
2017-09-15T04:23:38.034Z,11.43
2017-09-15T04:24:38.071Z,11.45
2017-09-15T04:26:31.079Z,11.50
2017-09-15T04:27:31.121Z,11.41
2017-09-15T04:29:24.106Z,11.44
2017-09-15T04:30:24.167Z,11.45
2017-09-15T04:32:17.173Z,11.43
2017-09-15T04:33:17.212Z,11.36
2017-09-15T04:35:10.197Z,11.47
2017-09-15T04:36:10.257Z,11.45
2017-09-15T04:38:03.280Z,11.41
2017-09-15T04:39:03.305Z,11.50
2017-09-15T04:40:56.293Z,11.55
2017-09-15T04:41:56.351Z,11.43
2017-09-15T04:43:49.357Z,11.45
2017-09-15T04:44:49.396Z,11.45
2017-09-15T04:46:42.401Z,11.40
2017-09-15T04:47:42.441Z,11.41
2017-09-15T04:49:35.445Z,11.43
2017-09-15T04:50:35.501Z,11.50
2017-09-15T04:52:28.510Z,11.57
2017-09-15T04:53:28.550Z,11.47
2017-09-15T04:55:21.538Z,11.50
2017-09-15T04:56:21.595Z,11.52
2017-09-15T04:58:14.606Z,11.54
2017-09-15T04:59:14.639Z,11.47
2017-09-15T05:01:07.630Z,11.48
2017-09-15T05:02:07.686Z,11.54
2017-09-15T05:04:00.693Z,11.52
2017-09-15T05:05:00.731Z,11.48
2017-09-15T05:06:53.738Z,11.52
2017-09-15T05:07:53.777Z,11.52
2017-09-15T05:09:46.773Z,11.45
2017-09-15T05:10:46.829Z,11.45
2017-09-15T05:12:39.836Z,11.45
2017-09-15T05:13:39.877Z,11.40
2017-09-15T05:15:32.864Z,11.52
2017-09-15T05:16:32.928Z,11.45
2017-09-15T05:18:25.929Z,11.47
2017-09-15T05:19:25.966Z,11.45
2017-09-15T05:21:18.955Z,11.47
2017-09-15T05:22:19.012Z,11.40
2017-09-15T05:24:12.020Z,11.55
2017-09-15T05:25:12.059Z,11.50
2017-09-15T05:27:05.071Z,11.47
2017-09-15T05:28:05.113Z,11.48
2017-09-15T05:29:58.100Z,11.47
2017-09-15T05:30:58.159Z,11.57
2017-09-15T05:32:51.172Z,11.66
2017-09-15T05:33:51.204Z,11.66
2017-09-15T05:35:44.192Z,11.75
2017-09-15T05:36:44.254Z,11.75
2017-09-15T05:38:37.259Z,11.73
2017-09-15T05:39:37.298Z,11.72
2017-09-15T05:41:30.287Z,11.69
2017-09-15T05:42:30.343Z,11.73
2017-09-15T05:44:23.349Z,11.72
2017-09-15T05:45:23.388Z,11.62
2017-09-15T05:47:16.393Z,11.70
2017-09-15T05:48:16.431Z,11.70
2017-09-15T05:50:09.426Z,11.69
2017-09-15T05:51:09.479Z,11.70
2017-09-15T05:53:02.487Z,11.68
2017-09-15T05:54:02.528Z,11.72
2017-09-15T05:55:55.515Z,11.69
2017-09-15T05:56:55.572Z,11.77
2017-09-15T05:58:48.587Z,11.77
2017-09-15T05:59:48.619Z,11.88
2017-09-15T06:01:41.608Z,11.94
2017-09-15T06:02:41.665Z,12.02
2017-09-15T06:04:34.675Z,12.12
2017-09-15T06:05:34.713Z,12.17
2017-09-15T06:07:27.717Z,12.07
2017-09-15T06:08:27.759Z,12.04
2017-09-15T06:10:20.746Z,12.17
2017-09-15T06:11:20.803Z,12.12
2017-09-15T06:13:13.818Z,12.03
2017-09-15T06:14:13.856Z,12.07
2017-09-15T06:16:06.849Z,12.02
2017-09-15T06:17:06.912Z,12.06
2017-09-15T06:18:59.916Z,12.07
2017-09-15T06:19:59.956Z,12.13
2017-09-15T06:21:52.945Z,12.18
2017-09-15T06:22:53.002Z,12.22
2017-09-15T06:24:46.009Z,12.24
2017-09-15T06:25:46.048Z,12.22
2017-09-15T06:27:39.068Z,12.35
2017-09-15T06:28:39.125Z,12.25
2017-09-15T06:30:32.090Z,12.27
2017-09-15T06:31:32.144Z,12.36
2017-09-15T06:33:25.172Z,12.35
2017-09-15T06:34:25.193Z,12.39
2017-09-15T06:36:18.180Z,12.42
2017-09-15T06:37:18.239Z,12.42
2017-09-15T06:39:11.249Z,12.43
2017-09-15T06:40:11.287Z,12.43
2017-09-15T06:42:04.276Z,12.45
2017-09-15T06:43:04.333Z,12.43
2017-09-15T06:44:57.341Z,12.47
2017-09-15T06:45:57.388Z,12.46
2017-09-15T06:47:50.392Z,12.53
2017-09-15T06:48:50.433Z,12.55
2017-09-15T06:50:43.431Z,12.60
2017-09-15T06:51:43.480Z,12.67
2017-09-15T06:53:36.492Z,12.53
2017-09-15T06:54:36.530Z,12.62
2017-09-15T06:56:29.516Z,12.68
2017-09-15T06:57:29.582Z,12.70
2017-09-15T06:59:23.095Z,12.85
2017-09-15T07:00:23.130Z,13.12
2017-09-15T07:02:16.151Z,13.28
2017-09-15T07:03:16.207Z,13.41
2017-09-15T07:05:09.217Z,13.37
2017-09-15T07:06:09.256Z,13.20
2017-09-15T07:08:02.268Z,13.20
2017-09-15T07:09:02.303Z,13.22
2017-09-15T07:10:55.296Z,13.41
2017-09-15T07:11:55.351Z,13.50
2017-09-15T07:13:48.362Z,13.59
2017-09-15T07:14:48.397Z,13.52
2017-09-15T07:16:41.388Z,13.71
2017-09-15T07:17:41.447Z,13.77
2017-09-15T07:19:34.453Z,13.75
2017-09-15T07:20:34.497Z,13.65
2017-09-15T07:22:27.483Z,13.57
2017-09-15T07:23:27.545Z,13.49
2017-09-15T07:25:20.561Z,13.33
2017-09-15T07:26:20.602Z,13.37
2017-09-15T07:28:13.620Z,13.46
2017-09-15T07:29:13.655Z,13.53
2017-09-15T07:31:06.653Z,13.53
2017-09-15T07:32:06.709Z,13.62
2017-09-15T07:33:59.715Z,13.63
2017-09-15T07:34:59.758Z,13.72
2017-09-15T07:36:52.748Z,13.96
2017-09-15T07:37:52.809Z,13.72
2017-09-15T07:39:45.819Z,13.75
2017-09-15T07:40:45.859Z,13.75
2017-09-15T07:42:38.860Z,14.26
2017-09-15T07:43:38.921Z,14.44
2017-09-15T07:45:31.931Z,15.06
2017-09-15T07:46:31.971Z,17.48
2017-09-15T07:48:24.964Z,16.49
2017-09-15T07:49:25.022Z,15.80
2017-09-15T07:51:18.038Z,15.61
2017-09-15T07:52:18.074Z,15.57
2017-09-15T07:54:11.085Z,15.22
2017-09-15T07:55:11.126Z,15.10
2017-09-15T07:57:04.120Z,14.54
2017-09-15T07:58:04.182Z,14.37
2017-09-15T07:59:57.706Z,14.30
2017-09-15T08:00:57.745Z,14.30
2017-09-15T08:02:50.731Z,14.43
2017-09-15T08:03:50.800Z,14.41
2017-09-15T08:05:43.799Z,14.36
2017-09-15T08:06:43.840Z,14.29
2017-09-15T08:08:36.834Z,14.08
2017-09-15T08:09:36.895Z,14.10
2017-09-15T08:11:29.908Z,13.96
2017-09-15T08:12:29.945Z,13.96
2017-09-15T08:14:22.957Z,13.87
2017-09-15T08:15:22.999Z,13.92
2017-09-15T08:17:15.988Z,14.05
2017-09-15T08:18:16.050Z,14.04
2017-09-15T08:20:09.059Z,14.15
2017-09-15T08:21:09.099Z,14.10
2017-09-15T08:23:02.094Z,14.12
2017-09-15T08:24:02.153Z,14.20
2017-09-15T08:25:55.166Z,14.32
2017-09-15T08:26:55.207Z,14.37
2017-09-15T08:28:48.206Z,14.44
2017-09-15T08:29:48.263Z,14.40
2017-09-15T08:31:41.272Z,14.32
2017-09-15T08:32:41.317Z,14.20
2017-09-15T08:34:34.330Z,14.07
2017-09-15T08:35:34.374Z,13.97
2017-09-15T08:37:27.372Z,14.04
2017-09-15T08:38:27.429Z,14.20
2017-09-15T08:40:20.443Z,14.41
2017-09-15T08:41:20.493Z,14.47
2017-09-15T08:43:13.485Z,14.62
2017-09-15T08:44:13.546Z,14.53
2017-09-15T08:46:06.558Z,14.72
2017-09-15T08:47:06.604Z,14.97
2017-09-15T08:48:59.600Z,15.02
2017-09-15T08:49:59.660Z,14.85
2017-09-15T08:51:52.673Z,14.82
2017-09-15T08:52:52.734Z,14.59
2017-09-15T08:54:45.753Z,14.45
2017-09-15T08:55:45.779Z,14.33
2017-09-15T08:57:38.780Z,14.28
2017-09-15T08:58:38.836Z,14.28
2017-09-15T09:00:32.356Z,14.35
2017-09-15T09:01:32.393Z,14.22
2017-09-15T09:03:25.384Z,14.17
2017-09-15T09:04:25.444Z,14.11
2017-09-15T09:06:18.462Z,14.15
2017-09-15T09:07:18.500Z,14.14
2017-09-15T09:09:11.491Z,14.33
2017-09-15T09:10:11.552Z,14.47
2017-09-15T09:12:04.565Z,14.29
2017-09-15T09:13:04.608Z,14.29
2017-09-15T09:14:57.630Z,14.32
2017-09-15T09:15:57.672Z,14.35
2017-09-15T09:17:50.663Z,14.51
2017-09-15T09:18:50.728Z,14.82
2017-09-15T09:20:43.737Z,15.33
2017-09-15T09:21:43.779Z,15.54
2017-09-15T09:23:36.770Z,15.92
2017-09-15T09:24:36.833Z,15.68
2017-09-15T09:26:29.846Z,15.33
2017-09-15T09:27:29.890Z,15.17
2017-09-15T09:29:22.880Z,14.69
2017-09-15T09:30:22.941Z,14.68
2017-09-15T09:32:15.952Z,14.63
2017-09-15T09:33:15.995Z,14.55
2017-09-15T09:35:09.007Z,14.45
2017-09-15T09:36:09.051Z,14.54
2017-09-15T09:38:02.040Z,15.04
2017-09-15T09:39:02.110Z,15.25
2017-09-15T09:40:55.129Z,15.42
2017-09-15T09:41:55.158Z,15.33
2017-09-15T09:43:48.146Z,15.58
2017-09-15T09:44:48.207Z,16.13
2017-09-15T09:46:41.219Z,16.43
2017-09-15T09:47:41.262Z,16.23
2017-09-15T09:49:34.258Z,15.91
2017-09-15T09:50:34.319Z,16.16
2017-09-15T09:52:27.323Z,16.31
2017-09-15T09:53:27.367Z,16.24
2017-09-15T09:55:20.410Z,15.73
2017-09-15T09:56:20.451Z,15.70
2017-09-15T09:58:13.442Z,16.29
2017-09-15T09:59:13.504Z,16.36
2017-09-15T10:01:06.518Z,16.42
2017-09-15T10:02:06.561Z,16.60
2017-09-15T10:03:59.559Z,17.29
2017-09-15T10:04:59.617Z,17.54
2017-09-15T10:06:52.632Z,17.34
2017-09-15T10:07:52.671Z,17.29
2017-09-15T10:09:45.667Z,16.97
2017-09-15T10:10:45.732Z,16.84
2017-09-15T10:12:38.744Z,16.68
2017-09-15T10:13:38.788Z,16.51
2017-09-15T10:15:31.800Z,15.97
2017-09-15T10:16:31.847Z,16.16
2017-09-15T10:18:24.836Z,16.02
2017-09-15T10:19:24.898Z,15.98
2017-09-15T10:21:17.912Z,16.12
2017-09-15T10:22:17.952Z,16.15
2017-09-15T10:24:10.944Z,16.39
2017-09-15T10:25:11.006Z,16.64
2017-09-15T10:27:04.023Z,16.72
2017-09-15T10:28:04.060Z,16.81
2017-09-15T10:29:57.057Z,16.38
2017-09-15T10:30:57.125Z,16.33
2017-09-15T10:32:50.127Z,16.50
2017-09-15T10:33:50.174Z,16.60
2017-09-15T10:35:43.181Z,17.05
2017-09-15T10:36:43.224Z,17.12
2017-09-15T10:38:36.218Z,17.11
2017-09-15T10:39:36.278Z,17.06
2017-09-15T10:41:29.310Z,16.79
2017-09-15T10:42:29.332Z,16.87
2017-09-15T10:44:22.328Z,16.60
2017-09-15T10:45:22.386Z,16.54
2017-09-15T10:47:15.398Z,16.54
2017-09-15T10:48:15.441Z,16.38
2017-09-15T10:50:08.439Z,16.15
2017-09-15T10:51:08.499Z,16.01
2017-09-15T10:53:01.508Z,15.88
2017-09-15T10:54:01.551Z,15.82
2017-09-15T10:55:54.574Z,15.68
2017-09-15T10:56:54.607Z,15.64
2017-09-15T10:58:47.599Z,15.39
2017-09-15T10:59:47.664Z,15.33
2017-09-15T11:01:40.686Z,15.35
2017-09-15T11:02:40.723Z,15.36
2017-09-15T11:04:33.708Z,15.39
2017-09-15T11:05:33.772Z,15.39
2017-09-15T11:07:26.779Z,15.42
2017-09-15T11:08:26.819Z,15.57
2017-09-15T11:10:19.815Z,15.70
2017-09-15T11:11:19.875Z,15.92
2017-09-15T11:13:12.892Z,16.02
2017-09-15T11:14:12.933Z,16.02
2017-09-15T11:16:05.949Z,16.24
2017-09-15T11:17:06.000Z,16.36
2017-09-15T11:18:58.985Z,16.61
2017-09-15T11:19:59.054Z,16.78
2017-09-15T11:21:52.080Z,16.86
2017-09-15T11:22:52.112Z,16.58
2017-09-15T11:24:45.104Z,16.41
2017-09-15T11:25:45.167Z,16.35
2017-09-15T11:27:38.184Z,16.47
2017-09-15T11:28:38.223Z,16.56
2017-09-15T11:30:31.214Z,16.46
2017-09-15T11:31:31.277Z,16.51
2017-09-15T11:33:24.290Z,16.41
2017-09-15T11:34:24.336Z,16.38
2017-09-15T11:36:17.351Z,16.49
2017-09-15T11:37:17.388Z,16.57
2017-09-15T11:39:10.397Z,16.41
2017-09-15T11:40:10.460Z,16.51
2017-09-15T11:42:03.469Z,16.31
2017-09-15T11:43:03.510Z,16.38
2017-09-15T11:44:56.499Z,16.39
2017-09-15T11:45:56.568Z,16.50
2017-09-15T11:47:49.574Z,16.41
2017-09-15T11:48:49.617Z,16.32
2017-09-15T11:50:42.626Z,16.41
2017-09-15T11:51:42.677Z,16.50
2017-09-15T11:53:35.689Z,16.66
2017-09-15T11:54:35.733Z,16.75
2017-09-15T11:56:29.253Z,16.86
2017-09-15T11:57:29.301Z,16.86
2017-09-15T11:59:22.295Z,16.60
2017-09-15T12:00:22.360Z,16.42
2017-09-15T12:02:15.376Z,16.31
2017-09-15T12:03:15.418Z,16.05
2017-09-15T12:05:08.919Z,16.00
2017-09-15T12:06:08.982Z,15.86
2017-09-15T12:08:01.998Z,15.84
2017-09-15T12:09:02.041Z,15.79
2017-09-15T12:10:55.038Z,15.79
2017-09-15T12:11:55.099Z,15.77
2017-09-15T12:13:48.628Z,15.70
2017-09-15T12:14:48.663Z,15.62
2017-09-15T12:16:41.703Z,15.57
2017-09-15T12:17:41.733Z,15.52
2017-09-15T12:19:34.724Z,15.37
2017-09-15T12:20:34.787Z,15.46
2017-09-15T12:22:27.805Z,15.59
2017-09-15T12:23:27.843Z,15.55
2017-09-15T12:25:20.837Z,15.73
2017-09-15T12:26:20.903Z,15.70
2017-09-15T12:28:13.935Z,15.91
2017-09-15T12:29:13.958Z,16.04
2017-09-15T12:31:06.957Z,16.35
2017-09-15T12:32:07.012Z,16.33
2017-09-15T12:34:00.565Z,16.57
2017-09-15T12:35:00.590Z,16.51
2017-09-15T12:36:53.600Z,16.46
2017-09-15T12:37:53.644Z,16.43
2017-09-15T12:39:46.639Z,16.38
2017-09-15T12:40:46.706Z,16.36
2017-09-15T12:42:39.715Z,16.60
2017-09-15T12:43:39.760Z,16.69
2017-09-15T12:45:32.762Z,16.74
2017-09-15T12:46:32.820Z,16.68
2017-09-15T12:48:25.835Z,16.76
2017-09-15T12:49:25.878Z,16.76
2017-09-15T12:51:18.869Z,16.96
2017-09-15T12:52:18.931Z,16.79
2017-09-15T12:54:11.949Z,16.68
2017-09-15T12:55:11.989Z,16.71
2017-09-15T12:57:05.008Z,16.60
2017-09-15T12:58:05.049Z,16.66
2017-09-15T12:59:58.043Z,16.83
2017-09-15T13:00:58.116Z,16.84
2017-09-15T13:02:51.120Z,16.86
2017-09-15T13:03:51.165Z,16.84
2017-09-15T13:05:44.158Z,16.86
2017-09-15T13:06:44.218Z,16.86
2017-09-15T13:08:37.240Z,16.72
2017-09-15T13:09:37.290Z,16.74
2017-09-15T13:11:30.283Z,16.74
2017-09-15T13:12:30.353Z,16.84
2017-09-15T13:14:23.359Z,16.91
2017-09-15T13:15:23.396Z,16.86
2017-09-15T13:17:16.411Z,16.53
2017-09-15T13:18:16.452Z,16.39
2017-09-15T13:20:09.444Z,16.47
2017-09-15T13:21:09.506Z,16.50
2017-09-15T13:23:02.531Z,16.57
2017-09-15T13:24:02.565Z,16.51
2017-09-15T13:25:55.557Z,16.74
2017-09-15T13:26:55.621Z,16.90
2017-09-15T13:28:48.638Z,16.99
2017-09-15T13:29:48.676Z,17.05
2017-09-15T13:31:41.670Z,17.11
2017-09-15T13:32:41.731Z,17.24
2017-09-15T13:34:35.255Z,17.29
2017-09-15T13:35:35.309Z,17.23
2017-09-15T13:37:28.307Z,17.26
2017-09-15T13:38:28.353Z,17.14
2017-09-15T13:40:21.350Z,17.05
2017-09-15T13:41:21.414Z,16.79
2017-09-15T13:43:14.427Z,16.97
2017-09-15T13:44:14.471Z,16.90
2017-09-15T13:46:07.465Z,16.83
2017-09-15T13:47:07.525Z,16.57
2017-09-15T13:49:00.545Z,16.46
2017-09-15T13:50:00.588Z,16.46
2017-09-15T13:51:53.581Z,16.51
2017-09-15T13:52:53.641Z,16.51
2017-09-15T13:54:46.655Z,16.50
2017-09-15T13:55:46.699Z,16.36
2017-09-15T13:57:39.712Z,16.41
2017-09-15T13:58:39.756Z,16.49
2017-09-15T14:00:32.837Z,16.57
2017-09-15T14:01:32.819Z,16.72
2017-09-15T14:03:25.829Z,16.86
2017-09-15T14:04:25.874Z,16.91
2017-09-15T14:06:18.868Z,17.08
2017-09-15T14:07:18.930Z,17.11
2017-09-15T14:09:11.944Z,17.05
2017-09-15T14:10:11.993Z,17.15
2017-09-15T14:12:04.988Z,16.97
2017-09-15T14:13:05.043Z,16.96
2017-09-15T14:14:58.056Z,16.90
2017-09-15T14:15:58.100Z,17.01
2017-09-15T14:17:51.118Z,16.91
2017-09-15T14:18:51.166Z,17.09
2017-09-15T14:20:44.161Z,16.97
2017-09-15T14:21:44.226Z,16.96
2017-09-15T14:23:37.246Z,17.01
2017-09-15T14:24:37.283Z,17.12
2017-09-15T14:26:30.285Z,17.08
2017-09-15T14:27:30.345Z,17.06
2017-09-15T14:29:23.368Z,17.24
2017-09-15T14:30:23.402Z,17.20
2017-09-15T14:32:16.395Z,17.51
2017-09-15T14:33:16.458Z,17.51
2017-09-15T14:35:09.472Z,17.33
2017-09-15T14:36:09.514Z,17.34
2017-09-15T14:38:02.527Z,17.15
2017-09-15T14:39:02.570Z,17.11
2017-09-15T14:40:55.564Z,17.05
2017-09-15T14:41:55.630Z,16.83
2017-09-15T14:43:48.642Z,16.76
2017-09-15T14:44:48.686Z,16.76
2017-09-15T14:46:41.679Z,16.74
2017-09-15T14:47:41.744Z,16.64
2017-09-15T14:49:34.758Z,16.49
2017-09-15T14:50:34.804Z,16.38
2017-09-15T14:52:27.793Z,16.35
2017-09-15T14:53:27.858Z,16.43
2017-09-15T14:55:20.880Z,16.38
2017-09-15T14:56:20.923Z,16.42
2017-09-15T14:58:13.935Z,16.39
2017-09-15T14:59:13.978Z,16.56
2017-09-15T15:01:06.973Z,16.46
2017-09-15T15:02:07.032Z,16.50
2017-09-15T15:04:00.046Z,16.36
2017-09-15T15:05:00.090Z,16.28
2017-09-15T15:06:53.081Z,16.21
2017-09-15T15:07:53.144Z,16.17
2017-09-15T15:09:46.160Z,16.29
2017-09-15T15:10:46.203Z,16.17
2017-09-15T15:12:39.207Z,16.21
2017-09-15T15:13:39.272Z,16.20
2017-09-15T15:15:32.295Z,16.29
2017-09-15T15:16:32.339Z,16.21
2017-09-15T15:18:25.352Z,16.31
2017-09-15T15:19:25.395Z,16.39
2017-09-15T15:21:18.391Z,16.38
2017-09-15T15:22:18.456Z,16.41
2017-09-15T15:24:11.477Z,16.50
2017-09-15T15:25:11.515Z,16.46
2017-09-15T15:27:04.502Z,16.35
2017-09-15T15:28:04.565Z,16.32
2017-09-15T15:29:57.577Z,16.31
2017-09-15T15:30:57.621Z,16.17
2017-09-15T15:32:50.611Z,16.39
2017-09-15T15:33:50.676Z,16.43
2017-09-15T15:35:43.688Z,16.54
2017-09-15T15:36:43.730Z,16.58
2017-09-15T15:38:36.741Z,16.65
2017-09-15T15:39:36.787Z,16.61
2017-09-15T15:41:29.774Z,16.42
2017-09-15T15:42:29.839Z,16.43
2017-09-15T15:44:22.854Z,16.23
2017-09-15T15:45:22.901Z,16.28
2017-09-15T15:47:15.887Z,16.12
2017-09-15T15:48:15.952Z,16.10
2017-09-15T15:50:08.972Z,16.12
2017-09-15T15:51:09.012Z,16.13
2017-09-15T15:53:02.007Z,16.31
2017-09-15T15:54:02.068Z,16.20
2017-09-15T15:55:55.080Z,16.26
2017-09-15T15:56:55.123Z,16.28
2017-09-15T15:58:48.133Z,16.28
2017-09-15T15:59:48.177Z,16.33
2017-09-15T16:01:41.167Z,16.09
2017-09-15T16:02:41.232Z,16.20
2017-09-15T16:04:34.244Z,16.12
2017-09-15T16:05:34.285Z,16.05
2017-09-15T16:07:27.277Z,16.15
2017-09-15T16:08:27.340Z,16.16
2017-09-15T16:10:20.349Z,16.16
2017-09-15T16:11:20.392Z,16.13
2017-09-15T16:13:13.387Z,15.95
2017-09-15T16:14:13.447Z,15.98
2017-09-15T16:16:06.457Z,15.88
2017-09-15T16:17:06.501Z,15.77
2017-09-15T16:18:59.518Z,15.83
2017-09-15T16:19:59.562Z,15.79
2017-09-15T16:21:52.555Z,15.64
2017-09-15T16:22:52.617Z,15.82
2017-09-15T16:24:45.630Z,15.70
2017-09-15T16:25:45.672Z,15.70
2017-09-15T16:27:38.669Z,15.67
2017-09-15T16:28:38.736Z,15.68
2017-09-15T16:30:31.744Z,15.70
2017-09-15T16:31:31.787Z,15.62
2017-09-15T16:33:24.781Z,15.67
2017-09-15T16:34:24.846Z,15.57
2017-09-15T16:36:17.857Z,15.44
2017-09-15T16:37:17.901Z,15.43
2017-09-15T16:39:10.911Z,15.31
2017-09-15T16:40:10.954Z,15.39
2017-09-15T16:42:04.451Z,15.11
2017-09-15T16:43:04.513Z,15.11
2017-09-15T16:44:57.524Z,15.06
2017-09-15T16:45:57.563Z,15.03
2017-09-15T16:47:50.556Z,15.00
2017-09-15T16:48:50.619Z,14.97
2017-09-15T16:50:43.627Z,14.86
2017-09-15T16:51:43.670Z,14.92
2017-09-15T16:53:36.660Z,14.84
2017-09-15T16:54:36.724Z,14.86
2017-09-15T16:56:29.752Z,14.77
2017-09-15T16:57:29.778Z,14.70
2017-09-15T16:59:22.787Z,14.73
2017-09-15T17:00:22.828Z,14.79
2017-09-15T17:02:15.820Z,14.85
2017-09-15T17:03:15.884Z,14.85
2017-09-15T17:05:08.896Z,14.72
2017-09-15T17:06:08.937Z,14.84
2017-09-15T17:08:01.925Z,14.72
2017-09-15T17:09:01.988Z,14.63
2017-09-15T17:10:55.000Z,14.54
2017-09-15T17:11:55.040Z,14.58
2017-09-15T17:13:48.031Z,14.62
2017-09-15T17:14:48.093Z,14.54
2017-09-15T17:16:41.104Z,14.55
2017-09-15T17:17:41.178Z,14.54
2017-09-15T17:19:34.156Z,14.63
2017-09-15T17:20:34.198Z,14.41
2017-09-15T17:22:27.189Z,14.50
2017-09-15T17:23:27.251Z,14.50
2017-09-15T17:25:20.262Z,14.40
2017-09-15T17:26:20.305Z,14.35
2017-09-15T17:28:13.294Z,14.29
2017-09-15T17:29:13.363Z,14.23
2017-09-15T17:31:06.368Z,14.23
2017-09-15T17:32:06.410Z,14.07
2017-09-15T17:33:59.406Z,14.08
2017-09-15T17:34:59.469Z,14.08
2017-09-15T17:36:52.479Z,13.99
2017-09-15T17:37:52.519Z,13.97
2017-09-15T17:39:45.529Z,13.85
2017-09-15T17:40:45.603Z,13.85
2017-09-15T17:42:38.563Z,13.93
2017-09-15T17:43:38.624Z,13.89
2017-09-15T17:45:31.635Z,13.78
2017-09-15T17:46:31.681Z,13.87
2017-09-15T17:48:24.666Z,13.78
2017-09-15T17:49:24.727Z,13.71
2017-09-15T17:51:17.738Z,13.70
2017-09-15T17:52:17.777Z,13.63
2017-09-15T17:54:10.770Z,13.59
2017-09-15T17:55:10.827Z,13.57
2017-09-15T17:57:03.851Z,13.50
2017-09-15T17:58:03.985Z,13.41
2017-09-15T17:59:56.891Z,13.28
2017-09-15T18:00:56.932Z,13.33
2017-09-15T18:02:49.921Z,13.30
2017-09-15T18:03:49.984Z,13.30
2017-09-15T18:05:42.994Z,13.13
2017-09-15T18:06:43.047Z,13.19
2017-09-15T18:08:36.033Z,13.18
2017-09-15T18:09:36.091Z,13.18
2017-09-15T18:11:29.101Z,13.04
2017-09-15T18:12:29.145Z,13.04
2017-09-15T18:14:22.163Z,12.95
2017-09-15T18:15:22.226Z,12.98
2017-09-15T18:17:15.237Z,12.83
2017-09-15T18:18:15.281Z,12.93
2017-09-15T18:20:08.349Z,12.79
2017-09-15T18:21:08.331Z,12.75
2017-09-15T18:23:01.321Z,12.64
2017-09-15T18:24:01.381Z,12.53
2017-09-15T18:25:54.390Z,12.54
2017-09-15T18:26:54.432Z,12.53
2017-09-15T18:28:47.423Z,12.50
2017-09-15T18:29:47.486Z,12.55
2017-09-15T18:31:40.498Z,12.53
2017-09-15T18:32:40.551Z,12.53
2017-09-15T18:34:33.526Z,12.45